createdAt,value
2019-01-26T00:00:27.215Z,2.80
2019-01-26T00:01:27.178Z,3.60
2019-01-26T00:02:27.162Z,3.10
2019-01-26T00:03:27.256Z,3.30
2019-01-26T00:04:27.158Z,3.80
2019-01-26T00:05:27.194Z,3.10
2019-01-26T00:06:27.169Z,3.50
2019-01-26T00:07:27.202Z,3.30
2019-01-26T00:08:27.116Z,4.30
2019-01-26T00:09:27.092Z,3.50
2019-01-26T00:10:27.114Z,3.90
2019-01-26T00:11:27.086Z,4.10
2019-01-26T00:12:27.082Z,4.70
2019-01-26T00:13:27.092Z,4.60
2019-01-26T00:14:27.058Z,4.80
2019-01-26T00:15:27.035Z,4.50
2019-01-26T00:16:27.040Z,5.00
2019-01-26T00:17:27.010Z,4.60
2019-01-26T00:18:27.021Z,4.70
2019-01-26T00:19:26.997Z,4.80
2019-01-26T00:20:26.972Z,5.10
2019-01-26T00:21:27.022Z,5.10
2019-01-26T00:22:26.966Z,4.40
2019-01-26T00:23:26.951Z,5.40
2019-01-26T00:24:26.944Z,5.30
2019-01-26T00:25:26.936Z,5.10
2019-01-26T00:26:26.943Z,5.30
2019-01-26T00:27:26.905Z,5.40
2019-01-26T00:28:27.077Z,5.80
2019-01-26T00:29:26.881Z,5.60
2019-01-26T00:30:26.865Z,6.00
2019-01-26T00:31:26.868Z,5.30
2019-01-26T00:32:26.842Z,5.00
2019-01-26T00:33:26.867Z,5.00
2019-01-26T00:34:26.836Z,5.20
2019-01-26T00:35:26.806Z,5.00
2019-01-26T00:36:26.803Z,5.10
2019-01-26T00:37:26.806Z,5.10
2019-01-26T00:38:26.793Z,4.70
2019-01-26T00:39:26.790Z,5.10
2019-01-26T00:40:26.774Z,4.80
2019-01-26T00:41:26.760Z,5.20
2019-01-26T00:42:26.742Z,4.50
2019-01-26T00:43:26.729Z,5.30
2019-01-26T00:44:26.732Z,5.40
2019-01-26T00:45:26.723Z,4.70
2019-01-26T00:46:28.539Z,5.10
2019-01-26T00:47:26.690Z,5.50
2019-01-26T00:48:26.759Z,4.80
2019-01-26T00:49:26.679Z,5.00
2019-01-26T00:50:26.693Z,5.10
2019-01-26T00:51:26.652Z,4.40
2019-01-26T00:52:26.631Z,5.00
2019-01-26T00:53:26.635Z,5.10
2019-01-26T00:54:26.601Z,4.80
2019-01-26T00:55:26.629Z,5.30
2019-01-26T00:56:26.599Z,4.80
2019-01-26T00:57:26.605Z,4.40
2019-01-26T00:58:26.587Z,4.40
2019-01-26T00:59:27.553Z,4.00
2019-01-26T01:00:26.561Z,4.60
2019-01-26T01:01:26.575Z,4.50
2019-01-26T01:02:26.636Z,3.80
2019-01-26T01:03:26.547Z,3.30
2019-01-26T01:04:26.519Z,3.70
2019-01-26T01:05:26.513Z,4.00
2019-01-26T01:06:26.474Z,4.00
2019-01-26T01:07:26.473Z,4.10
2019-01-26T01:08:26.481Z,4.10
2019-01-26T01:09:26.466Z,4.40
2019-01-26T01:10:26.456Z,3.60
2019-01-26T01:11:26.546Z,3.70
2019-01-26T01:12:26.468Z,3.20
2019-01-26T01:13:26.406Z,3.90
2019-01-26T01:14:26.445Z,3.90
2019-01-26T01:15:26.386Z,3.70
2019-01-26T01:16:26.415Z,3.20
2019-01-26T01:17:26.365Z,3.10
2019-01-26T01:18:26.355Z,2.90
2019-01-26T01:19:26.356Z,3.60
2019-01-26T01:20:26.381Z,3.00
2019-01-26T01:21:26.398Z,3.10
2019-01-26T01:22:26.311Z,3.60
2019-01-26T01:23:26.312Z,3.50
2019-01-26T01:24:26.335Z,3.00
2019-01-26T01:25:26.297Z,3.40
2019-01-26T01:26:26.285Z,3.40
2019-01-26T01:27:26.287Z,2.80
2019-01-26T01:28:26.272Z,2.90
2019-01-26T01:29:26.257Z,2.50
2019-01-26T01:30:26.313Z,2.90
2019-01-26T01:31:26.264Z,3.00
2019-01-26T01:32:26.211Z,2.60
2019-01-26T01:33:26.214Z,2.90
2019-01-26T01:34:26.224Z,3.50
2019-01-26T01:35:26.188Z,3.40
2019-01-26T01:36:26.170Z,3.40
2019-01-26T01:37:26.177Z,3.20
2019-01-26T01:38:26.155Z,3.20
2019-01-26T01:39:26.224Z,3.10
2019-01-26T01:40:26.191Z,3.20
2019-01-26T01:41:26.200Z,3.40
2019-01-26T01:42:26.103Z,3.30
2019-01-26T01:43:26.126Z,3.00
2019-01-26T01:44:26.078Z,3.30
2019-01-26T01:45:26.089Z,2.70
2019-01-26T01:46:26.126Z,2.90
2019-01-26T01:47:26.062Z,3.30
2019-01-26T01:48:26.050Z,2.70
2019-01-26T01:49:26.041Z,2.70
2019-01-26T01:50:26.030Z,2.70
2019-01-26T01:51:26.001Z,2.60
2019-01-26T01:52:26.032Z,2.50
2019-01-26T01:53:26.033Z,2.50
2019-01-26T01:54:26.006Z,2.30
2019-01-26T01:55:26.033Z,1.80
2019-01-26T01:56:25.943Z,2.00
2019-01-26T01:57:25.995Z,1.50
2019-01-26T01:58:25.986Z,1.90
2019-01-26T01:59:25.935Z,1.50
2019-01-26T02:00:25.904Z,1.90
2019-01-26T02:01:25.931Z,2.00
2019-01-26T02:02:25.883Z,1.80
2019-01-26T02:03:25.884Z,1.80
2019-01-26T02:04:25.854Z,1.90
2019-01-26T02:05:25.849Z,1.70
2019-01-26T02:06:25.878Z,1.80
2019-01-26T02:07:25.829Z,1.90
2019-01-26T02:08:25.900Z,1.80
2019-01-26T02:09:25.832Z,1.80
2019-01-26T02:10:25.820Z,2.00
2019-01-26T02:11:25.790Z,2.20
2019-01-26T02:12:25.799Z,1.80
2019-01-26T02:13:25.801Z,1.90
2019-01-26T02:14:25.760Z,1.50
2019-01-26T02:15:25.751Z,1.70
2019-01-26T02:16:25.739Z,1.80
2019-01-26T02:17:25.756Z,1.90
2019-01-26T02:18:25.706Z,2.10
2019-01-26T02:19:25.699Z,1.70
2019-01-26T02:20:25.771Z,1.70
2019-01-26T02:21:25.686Z,1.80
2019-01-26T02:22:25.685Z,1.60
2019-01-26T02:23:25.673Z,1.80
2019-01-26T02:24:25.648Z,1.60
2019-01-26T02:25:25.648Z,2.00
2019-01-26T02:26:25.702Z,1.40
2019-01-26T02:27:25.615Z,1.80
2019-01-26T02:28:25.640Z,1.80
2019-01-26T02:29:25.644Z,2.10
2019-01-26T02:30:25.572Z,1.80
2019-01-26T02:31:25.634Z,1.80
2019-01-26T02:32:25.585Z,2.00
2019-01-26T02:33:25.560Z,1.70
2019-01-26T02:34:25.581Z,1.60
2019-01-26T02:35:25.534Z,1.80
2019-01-26T02:36:25.516Z,1.50
2019-01-26T02:37:25.517Z,1.50
2019-01-26T02:38:25.517Z,1.40
2019-01-26T02:39:25.501Z,1.90
2019-01-26T02:40:25.524Z,1.70
2019-01-26T02:41:25.526Z,1.70
2019-01-26T02:42:25.458Z,1.70
2019-01-26T02:43:25.498Z,1.60
2019-01-26T02:44:25.447Z,1.70
2019-01-26T02:45:25.544Z,1.50
2019-01-26T02:46:25.420Z,1.70
2019-01-26T02:47:25.408Z,1.60
2019-01-26T02:48:25.383Z,1.70
2019-01-26T02:49:25.422Z,1.40
2019-01-26T02:50:25.386Z,1.40
2019-01-26T02:51:25.368Z,1.50
2019-01-26T02:52:25.359Z,1.40
2019-01-26T02:53:25.367Z,1.20
2019-01-26T02:54:25.388Z,1.50
2019-01-26T02:55:25.333Z,1.60
2019-01-26T02:56:25.360Z,1.40
2019-01-26T02:57:25.288Z,1.40
2019-01-26T02:58:25.308Z,1.30
2019-01-26T02:59:25.315Z,1.30
2019-01-26T03:00:25.279Z,1.40
2019-01-26T03:01:25.248Z,1.30
2019-01-26T03:02:25.250Z,1.30
2019-01-26T03:03:25.246Z,1.30
2019-01-26T03:04:25.266Z,1.30
2019-01-26T03:05:25.227Z,1.40
2019-01-26T03:06:25.209Z,1.30
2019-01-26T03:07:25.201Z,1.20
2019-01-26T03:08:25.181Z,1.40
2019-01-26T03:09:25.225Z,1.20
2019-01-26T03:10:25.194Z,1.40
2019-01-26T03:11:25.216Z,1.40
2019-01-26T03:12:25.166Z,1.30
2019-01-26T03:13:25.145Z,1.20
2019-01-26T03:14:25.151Z,1.30
2019-01-26T03:15:25.124Z,1.10
2019-01-26T03:16:25.095Z,1.10
2019-01-26T03:17:25.129Z,1.30
2019-01-26T03:18:25.071Z,1.00
2019-01-26T03:19:25.072Z,1.20
2019-01-26T03:20:25.108Z,1.40
2019-01-26T03:21:25.057Z,1.10
2019-01-26T03:22:25.031Z,1.40
2019-01-26T03:23:25.014Z,1.30
2019-01-26T03:24:25.034Z,1.20
2019-01-26T03:25:25.026Z,1.40
2019-01-26T03:26:25.035Z,1.40
2019-01-26T03:27:24.968Z,1.20
2019-01-26T03:28:24.974Z,1.60
2019-01-26T03:29:24.950Z,1.20
2019-01-26T03:30:24.981Z,1.20
2019-01-26T03:31:24.969Z,1.40
2019-01-26T03:32:24.931Z,1.10
2019-01-26T03:33:24.908Z,1.30
2019-01-26T03:34:24.930Z,1.30
2019-01-26T03:35:24.889Z,1.20
2019-01-26T03:36:24.932Z,1.40
2019-01-26T03:37:24.892Z,1.40
2019-01-26T03:38:24.874Z,1.30
2019-01-26T03:39:24.870Z,1.30
2019-01-26T03:40:24.883Z,1.40
2019-01-26T03:41:24.844Z,1.10
2019-01-26T03:42:24.821Z,1.40
2019-01-26T03:43:24.811Z,1.50
2019-01-26T03:44:24.789Z,1.50
2019-01-26T03:45:24.775Z,1.50
2019-01-26T03:46:24.795Z,1.40
2019-01-26T03:47:24.749Z,1.60
2019-01-26T03:48:24.747Z,1.60
2019-01-26T03:49:24.734Z,1.60
2019-01-26T03:50:24.744Z,1.80
2019-01-26T03:51:24.758Z,1.70
2019-01-26T03:52:24.700Z,1.90
2019-01-26T03:53:24.685Z,1.70
2019-01-26T03:54:24.687Z,1.80
2019-01-26T03:55:24.720Z,1.80
2019-01-26T03:56:24.683Z,2.10
2019-01-26T03:57:24.685Z,2.10
2019-01-26T03:58:24.648Z,2.10
2019-01-26T03:59:24.616Z,1.70
2019-01-26T04:00:24.625Z,2.10
2019-01-26T04:01:24.634Z,2.00
2019-01-26T04:02:24.614Z,2.00
2019-01-26T04:03:24.640Z,1.80
2019-01-26T04:04:24.598Z,2.30
2019-01-26T04:05:24.560Z,2.20
2019-01-26T04:06:24.572Z,2.10
2019-01-26T04:07:24.562Z,2.10
2019-01-26T04:08:24.594Z,2.20
2019-01-26T04:09:24.556Z,2.10
2019-01-26T04:10:24.559Z,2.10
2019-01-26T04:11:24.559Z,2.00
2019-01-26T04:12:24.512Z,2.00
2019-01-26T04:13:24.520Z,1.90
2019-01-26T04:14:24.462Z,2.50
2019-01-26T04:15:24.477Z,2.30
2019-01-26T04:16:24.480Z,2.10
2019-01-26T04:17:24.432Z,2.20
2019-01-26T04:18:24.449Z,2.40
2019-01-26T04:19:24.431Z,2.20
2019-01-26T04:20:24.403Z,2.10
2019-01-26T04:21:24.433Z,1.90
2019-01-26T04:22:24.387Z,2.10
2019-01-26T04:23:24.390Z,1.90
2019-01-26T04:24:24.395Z,1.90
2019-01-26T04:25:24.358Z,1.90
2019-01-26T04:26:24.338Z,2.00
2019-01-26T04:27:24.333Z,1.80
2019-01-26T04:28:24.356Z,2.10
2019-01-26T04:29:24.305Z,2.10
2019-01-26T04:30:24.323Z,2.10
2019-01-26T04:31:24.283Z,2.00
2019-01-26T04:32:24.282Z,2.30
2019-01-26T04:33:24.309Z,1.90
2019-01-26T04:34:24.245Z,2.10
2019-01-26T04:35:24.243Z,2.20
2019-01-26T04:36:24.255Z,2.00
2019-01-26T04:37:24.228Z,2.00
2019-01-26T04:38:24.212Z,2.40
2019-01-26T04:39:24.286Z,2.40
2019-01-26T04:40:24.211Z,2.30
2019-01-26T04:41:24.212Z,2.50
2019-01-26T04:42:24.163Z,2.70
2019-01-26T04:43:24.170Z,2.30
2019-01-26T04:44:24.153Z,2.30
2019-01-26T04:45:24.125Z,2.50
2019-01-26T04:46:24.119Z,3.00
2019-01-26T04:47:30.908Z,2.70
2019-01-26T04:48:25.090Z,3.10
2019-01-26T04:49:24.142Z,3.00
2019-01-26T04:50:24.084Z,3.60
2019-01-26T04:51:24.057Z,3.60
2019-01-26T04:52:24.059Z,3.40
2019-01-26T04:53:24.112Z,3.80
2019-01-26T04:54:24.028Z,4.10
2019-01-26T04:55:24.043Z,4.00
2019-01-26T04:56:24.003Z,4.40
2019-01-26T04:57:24.019Z,3.80
2019-01-26T04:58:24.019Z,4.50
2019-01-26T04:59:24.007Z,4.50
2019-01-26T05:00:24.004Z,4.60
2019-01-26T05:01:23.997Z,4.70
2019-01-26T05:02:23.965Z,5.00
2019-01-26T05:03:23.954Z,4.80
2019-01-26T05:04:23.950Z,5.00
2019-01-26T05:05:23.912Z,5.20
2019-01-26T05:06:23.921Z,4.80
2019-01-26T05:07:23.934Z,5.00
2019-01-26T05:08:23.874Z,4.80
2019-01-26T05:09:23.884Z,5.20
2019-01-26T05:10:23.870Z,5.10
2019-01-26T05:11:23.857Z,5.10
2019-01-26T05:12:23.850Z,5.30
2019-01-26T05:13:23.843Z,4.80
2019-01-26T05:14:23.811Z,5.70
2019-01-26T05:15:23.822Z,5.40
2019-01-26T05:16:23.781Z,5.10
2019-01-26T05:17:23.786Z,5.60
2019-01-26T05:18:23.797Z,5.30
2019-01-26T05:19:23.802Z,5.30
2019-01-26T05:20:23.751Z,5.20
2019-01-26T05:21:23.728Z,5.80
2019-01-26T05:22:23.760Z,5.70
2019-01-26T05:23:23.709Z,5.80
2019-01-26T05:24:23.785Z,5.60
2019-01-26T05:25:23.715Z,5.60
2019-01-26T05:26:23.707Z,4.80
2019-01-26T05:27:23.688Z,5.50
2019-01-26T05:28:23.671Z,5.20
2019-01-26T05:29:23.701Z,5.20
2019-01-26T05:30:23.637Z,5.40
2019-01-26T05:31:23.631Z,5.50
2019-01-26T05:32:23.626Z,5.90
2019-01-26T05:33:24.235Z,5.20
2019-01-26T05:34:23.637Z,5.30
2019-01-26T05:35:23.640Z,5.30
2019-01-26T05:36:23.579Z,5.60
2019-01-26T05:37:23.583Z,5.00
2019-01-26T05:38:23.557Z,5.40
2019-01-26T05:39:23.590Z,5.30
2019-01-26T05:40:23.522Z,5.10
2019-01-26T05:41:23.514Z,5.30
2019-01-26T05:42:23.551Z,4.90
2019-01-26T05:43:23.491Z,5.50
2019-01-26T05:44:23.514Z,4.80
2019-01-26T05:45:23.511Z,5.20
2019-01-26T05:46:23.462Z,4.80
2019-01-26T05:47:23.466Z,5.00
2019-01-26T05:48:23.445Z,4.90
2019-01-26T05:49:23.440Z,4.90
2019-01-26T05:50:23.472Z,5.10
2019-01-26T05:51:23.410Z,5.20
2019-01-26T05:52:23.429Z,4.60
2019-01-26T05:53:23.389Z,4.50
2019-01-26T05:54:23.411Z,4.60
2019-01-26T05:55:23.374Z,5.10
2019-01-26T05:56:23.364Z,4.50
2019-01-26T05:57:23.431Z,5.00
2019-01-26T05:58:23.365Z,4.90
2019-01-26T05:59:23.344Z,4.40
2019-01-26T06:00:23.331Z,4.60
2019-01-26T06:01:23.296Z,4.70
2019-01-26T06:02:23.290Z,4.40
2019-01-26T06:03:23.302Z,4.60
2019-01-26T06:04:23.304Z,4.50
2019-01-26T06:05:23.287Z,4.80
2019-01-26T06:06:23.252Z,4.50
2019-01-26T06:07:23.228Z,4.80
2019-01-26T06:08:23.234Z,4.30
2019-01-26T06:09:23.274Z,4.60
2019-01-26T06:10:23.206Z,4.60
2019-01-26T06:11:23.239Z,4.70
2019-01-26T06:12:23.183Z,4.40
2019-01-26T06:13:23.198Z,4.40
2019-01-26T06:14:23.155Z,4.70
2019-01-26T06:15:23.180Z,4.30
2019-01-26T06:16:23.144Z,4.40
2019-01-26T06:17:23.132Z,4.30
2019-01-26T06:18:23.141Z,4.50
2019-01-26T06:19:23.118Z,4.80
2019-01-26T06:20:23.105Z,4.40
2019-01-26T06:21:23.084Z,4.30
2019-01-26T06:22:23.094Z,4.40
2019-01-26T06:23:23.071Z,4.10
2019-01-26T06:24:23.058Z,4.30
2019-01-26T06:25:23.044Z,4.70
2019-01-26T06:26:23.122Z,4.50
2019-01-26T06:27:23.016Z,4.40
2019-01-26T06:28:23.038Z,4.80
2019-01-26T06:29:22.998Z,4.40
2019-01-26T06:30:23.045Z,4.40
2019-01-26T06:31:22.981Z,4.50
2019-01-26T06:32:22.989Z,4.80
2019-01-26T06:33:23.003Z,4.60
2019-01-26T06:34:22.959Z,4.90
2019-01-26T06:35:22.961Z,4.50
2019-01-26T06:36:22.983Z,4.70
2019-01-26T06:37:22.906Z,4.40
2019-01-26T06:38:22.919Z,4.50
2019-01-26T06:39:22.936Z,4.40
2019-01-26T06:40:22.904Z,4.50
2019-01-26T06:41:22.912Z,4.30
2019-01-26T06:42:22.883Z,4.50
2019-01-26T06:43:22.862Z,4.30
2019-01-26T06:44:22.835Z,4.30
2019-01-26T06:45:22.831Z,4.50
2019-01-26T06:46:22.819Z,4.50
2019-01-26T06:47:22.814Z,4.50
2019-01-26T06:48:22.838Z,4.20
2019-01-26T06:49:22.826Z,4.10
2019-01-26T06:50:22.804Z,3.80
2019-01-26T06:51:22.817Z,4.40
2019-01-26T06:52:22.764Z,4.50
2019-01-26T06:53:22.742Z,4.10
2019-01-26T06:54:22.743Z,4.30
2019-01-26T06:55:22.748Z,4.30
2019-01-26T06:56:22.749Z,4.40
2019-01-26T06:57:22.698Z,4.20
2019-01-26T06:58:22.713Z,3.90
2019-01-26T06:59:22.707Z,4.40
2019-01-26T07:00:22.665Z,4.40
2019-01-26T07:01:22.647Z,4.00
2019-01-26T07:02:22.670Z,4.00
2019-01-26T07:03:22.637Z,3.60
2019-01-26T07:04:22.648Z,3.60
2019-01-26T07:05:22.599Z,3.60
2019-01-26T07:06:22.639Z,3.60
2019-01-26T07:07:22.651Z,3.90
2019-01-26T07:08:22.583Z,3.60
2019-01-26T07:09:22.574Z,3.60
2019-01-26T07:10:22.556Z,3.60
2019-01-26T07:11:22.685Z,3.70
2019-01-26T07:12:22.533Z,3.80
2019-01-26T07:13:22.520Z,3.80
2019-01-26T07:14:22.525Z,3.50
2019-01-26T07:15:22.563Z,3.50
2019-01-26T07:16:22.523Z,3.60
2019-01-26T07:17:22.472Z,3.60
2019-01-26T07:18:22.466Z,3.10
2019-01-26T07:19:22.465Z,3.30
2019-01-26T07:20:22.452Z,3.80
2019-01-26T07:21:22.487Z,3.10
2019-01-26T07:22:22.438Z,3.00
2019-01-26T07:23:22.429Z,3.10
2019-01-26T07:24:22.434Z,3.20
2019-01-26T07:25:22.402Z,3.40
2019-01-26T07:26:22.381Z,3.50
2019-01-26T07:27:22.423Z,3.50
2019-01-26T07:28:22.500Z,3.80
2019-01-26T07:29:22.428Z,3.70
2019-01-26T07:30:22.376Z,4.00
2019-01-26T07:31:22.347Z,3.40
2019-01-26T07:32:22.385Z,3.80
2019-01-26T07:33:22.390Z,3.70
2019-01-26T07:34:22.313Z,3.60
2019-01-26T07:35:22.279Z,3.80
2019-01-26T07:36:22.285Z,4.00
2019-01-26T07:37:22.261Z,4.10
2019-01-26T07:38:22.254Z,3.80
2019-01-26T07:39:22.236Z,3.10
2019-01-26T07:40:22.232Z,3.50
2019-01-26T07:41:22.228Z,4.10
2019-01-26T07:42:22.215Z,3.30
2019-01-26T07:43:22.209Z,3.70
2019-01-26T07:44:22.182Z,3.50
2019-01-26T07:45:22.182Z,4.20
2019-01-26T07:46:22.184Z,4.20
2019-01-26T07:47:22.150Z,3.90
2019-01-26T07:48:22.142Z,4.20
2019-01-26T07:49:22.150Z,4.10
2019-01-26T07:50:22.153Z,4.10
2019-01-26T07:51:22.143Z,3.70
2019-01-26T07:52:22.147Z,3.70
2019-01-26T07:53:22.161Z,3.80
2019-01-26T07:54:22.088Z,4.10
2019-01-26T07:55:22.082Z,3.50
2019-01-26T07:56:22.072Z,3.70
2019-01-26T07:57:22.083Z,3.80
2019-01-26T07:58:22.087Z,4.20
2019-01-26T07:59:22.062Z,3.30
2019-01-26T08:00:22.015Z,3.40
2019-01-26T08:01:22.004Z,3.40
2019-01-26T08:02:22.097Z,2.70
2019-01-26T08:03:21.997Z,2.60
2019-01-26T08:04:21.988Z,2.40
2019-01-26T08:05:21.970Z,2.50
2019-01-26T08:06:21.962Z,2.50
2019-01-26T08:07:21.952Z,2.40
2019-01-26T08:08:21.964Z,2.40
2019-01-26T08:09:21.955Z,2.50
2019-01-26T08:10:21.987Z,2.50
2019-01-26T08:11:21.895Z,2.50
2019-01-26T08:12:21.930Z,2.60
2019-01-26T08:13:23.514Z,2.40
2019-01-26T08:14:21.927Z,2.90
2019-01-26T08:15:21.924Z,2.50
2019-01-26T08:16:21.893Z,2.40
2019-01-26T08:17:21.830Z,2.50
2019-01-26T08:18:24.222Z,2.30
2019-01-26T08:19:21.872Z,2.40
2019-01-26T08:20:21.830Z,2.30
2019-01-26T08:21:21.872Z,2.40
2019-01-26T08:22:21.795Z,2.40
2019-01-26T08:23:21.845Z,2.30
2019-01-26T08:24:21.790Z,2.30
2019-01-26T08:25:21.745Z,2.30
2019-01-26T08:26:21.742Z,2.30
2019-01-26T08:27:21.753Z,2.40
2019-01-26T08:28:21.752Z,2.40
2019-01-26T08:29:21.720Z,2.50
2019-01-26T08:30:21.734Z,2.40
2019-01-26T08:31:21.675Z,2.50
2019-01-26T08:32:21.672Z,2.10
2019-01-26T08:33:21.647Z,2.60
2019-01-26T08:34:21.661Z,2.30
2019-01-26T08:35:21.674Z,2.60
2019-01-26T08:36:21.622Z,2.40
2019-01-26T08:37:21.619Z,2.40
2019-01-26T08:38:21.605Z,2.50
2019-01-26T08:39:21.662Z,2.40
2019-01-26T08:40:21.591Z,2.30
2019-01-26T08:41:21.583Z,2.40
2019-01-26T08:42:21.566Z,2.40
2019-01-26T08:43:21.569Z,2.00
2019-01-26T08:44:21.535Z,2.20
2019-01-26T08:45:21.553Z,2.00
2019-01-26T08:46:21.551Z,2.00
2019-01-26T08:47:21.524Z,2.10
2019-01-26T08:48:21.491Z,1.80
2019-01-26T08:49:21.535Z,1.80
2019-01-26T08:50:21.485Z,2.10
2019-01-26T08:51:21.485Z,1.80
2019-01-26T08:52:21.463Z,2.00
2019-01-26T08:53:21.495Z,2.20
2019-01-26T08:54:21.552Z,2.10
2019-01-26T08:55:21.415Z,2.20
2019-01-26T08:56:21.433Z,1.80
2019-01-26T08:57:21.475Z,1.90
2019-01-26T08:58:21.420Z,2.00
2019-01-26T08:59:21.443Z,2.80
2019-01-26T09:00:21.357Z,2.30
2019-01-26T09:01:21.355Z,2.40
2019-01-26T09:02:25.395Z,3.00
2019-01-26T09:03:21.349Z,2.90
2019-01-26T09:04:21.328Z,2.80
2019-01-26T09:05:21.337Z,3.00
2019-01-26T09:06:21.300Z,3.40
2019-01-26T09:07:21.386Z,2.90
2019-01-26T09:08:21.298Z,3.00
2019-01-26T09:09:21.297Z,3.20
2019-01-26T09:10:21.269Z,3.10
2019-01-26T09:11:21.294Z,3.30
2019-01-26T09:12:21.238Z,3.60
2019-01-26T09:13:21.248Z,3.80
2019-01-26T09:14:21.237Z,3.90
2019-01-26T09:15:21.326Z,3.90
2019-01-26T09:16:21.206Z,4.30
2019-01-26T09:17:21.196Z,4.50
2019-01-26T09:18:21.185Z,3.60
2019-01-26T09:19:21.158Z,3.70
2019-01-26T09:20:21.163Z,3.80
2019-01-26T09:21:21.177Z,3.70
2019-01-26T09:22:21.259Z,3.90
2019-01-26T09:23:21.147Z,4.10
2019-01-26T09:24:21.185Z,3.90
2019-01-26T09:25:21.092Z,5.40
2019-01-26T09:26:21.098Z,5.00
2019-01-26T09:27:21.070Z,12.90
2019-01-26T09:28:21.069Z,13.70
2019-01-26T09:29:21.050Z,4.50
2019-01-26T09:30:21.120Z,3.00
2019-01-26T09:31:21.043Z,3.80
2019-01-26T09:32:21.010Z,5.00
2019-01-26T09:33:21.046Z,5.30
2019-01-26T09:34:21.039Z,3.30
2019-01-26T09:35:21.014Z,3.20
2019-01-26T09:36:21.042Z,7.30
2019-01-26T09:37:20.953Z,6.00
2019-01-26T09:38:20.969Z,5.20
2019-01-26T09:39:20.938Z,7.30
2019-01-26T09:40:21.020Z,5.10
2019-01-26T09:41:20.958Z,3.50
2019-01-26T09:42:20.934Z,3.00
2019-01-26T09:43:20.895Z,2.30
2019-01-26T09:44:20.904Z,3.10
2019-01-26T09:45:20.905Z,3.50
2019-01-26T09:46:20.861Z,4.20
2019-01-26T09:47:20.864Z,3.70
2019-01-26T09:48:20.891Z,10.90
2019-01-26T09:49:20.878Z,5.90
2019-01-26T09:50:20.830Z,2.30
2019-01-26T09:51:20.847Z,1.70
2019-01-26T09:52:20.803Z,1.90
2019-01-26T09:53:20.788Z,1.70
2019-01-26T09:54:20.777Z,1.80
2019-01-26T09:55:20.772Z,1.80
2019-01-26T09:56:20.773Z,1.80
2019-01-26T09:57:20.789Z,1.50
2019-01-26T09:58:20.887Z,1.50
2019-01-26T09:59:20.740Z,1.80
2019-01-26T10:00:20.721Z,1.80
2019-01-26T10:01:20.712Z,1.50
2019-01-26T10:02:20.705Z,1.40
2019-01-26T10:03:20.700Z,1.40
2019-01-26T10:04:20.684Z,1.50
2019-01-26T10:05:20.701Z,1.20
2019-01-26T10:06:20.656Z,1.30
2019-01-26T10:07:20.679Z,1.20
2019-01-26T10:08:20.719Z,1.10
2019-01-26T10:09:20.687Z,1.40
2019-01-26T10:10:20.622Z,1.20
2019-01-26T10:11:20.591Z,1.00
2019-01-26T10:12:20.682Z,1.10
2019-01-26T10:13:20.582Z,0.90
2019-01-26T10:14:20.693Z,1.00
2019-01-26T10:15:20.547Z,1.00
2019-01-26T10:16:20.541Z,1.20
2019-01-26T10:17:20.530Z,1.20
2019-01-26T10:18:20.511Z,1.10
2019-01-26T10:19:20.534Z,1.20
2019-01-26T10:20:20.557Z,0.90
2019-01-26T10:21:20.491Z,1.00
2019-01-26T10:22:20.468Z,1.10
2019-01-26T10:23:20.529Z,1.30
2019-01-26T10:24:20.455Z,1.20
2019-01-26T10:25:20.500Z,1.10
2019-01-26T10:26:20.484Z,4.10
2019-01-26T10:27:20.451Z,1.80
2019-01-26T10:28:20.414Z,1.40
2019-01-26T10:29:20.677Z,1.20
2019-01-26T10:30:20.414Z,1.30
2019-01-26T10:31:20.379Z,1.10
2019-01-26T10:32:20.388Z,1.20
2019-01-26T10:33:20.391Z,1.10
2019-01-26T10:34:20.444Z,1.00
2019-01-26T10:35:20.346Z,1.30
2019-01-26T10:36:20.316Z,1.10
2019-01-26T10:37:20.326Z,1.00
2019-01-26T10:38:20.316Z,1.00
2019-01-26T10:39:20.292Z,1.30
2019-01-26T10:40:20.308Z,1.10
2019-01-26T10:41:20.274Z,1.20
2019-01-26T10:42:20.264Z,1.20
2019-01-26T10:43:20.248Z,0.90
2019-01-26T10:44:20.234Z,1.00
2019-01-26T10:45:20.222Z,1.20
2019-01-26T10:46:20.223Z,1.60
2019-01-26T10:47:20.229Z,1.30
2019-01-26T10:48:20.214Z,1.20
2019-01-26T10:49:20.189Z,1.70
2019-01-26T10:50:20.178Z,1.40
2019-01-26T10:51:20.152Z,1.40
2019-01-26T10:52:20.160Z,1.10
2019-01-26T10:53:20.171Z,1.20
2019-01-26T10:54:20.141Z,1.10
2019-01-26T10:55:20.113Z,1.30
2019-01-26T10:56:20.822Z,1.20
2019-01-26T10:57:20.094Z,1.10
2019-01-26T10:58:20.093Z,1.30
2019-01-26T10:59:20.086Z,1.30
2019-01-26T11:00:20.072Z,1.20
2019-01-26T11:01:20.046Z,1.10
2019-01-26T11:02:20.079Z,1.30
2019-01-26T11:03:20.026Z,1.30
2019-01-26T11:04:20.062Z,1.40
2019-01-26T11:05:20.006Z,1.10
2019-01-26T11:06:20.058Z,1.30
2019-01-26T11:07:19.991Z,1.20
2019-01-26T11:08:19.986Z,1.30
2019-01-26T11:09:19.976Z,1.30
2019-01-26T11:10:19.958Z,1.10
2019-01-26T11:11:19.953Z,1.20
2019-01-26T11:12:19.960Z,1.10
2019-01-26T11:13:19.926Z,1.10
2019-01-26T11:14:19.974Z,1.20
2019-01-26T11:15:19.898Z,1.30
2019-01-26T11:16:19.899Z,1.20
2019-01-26T11:17:19.983Z,1.40
2019-01-26T11:18:19.877Z,1.40
2019-01-26T11:19:19.863Z,1.50
2019-01-26T11:20:19.845Z,1.30
2019-01-26T11:21:19.881Z,1.40
2019-01-26T11:22:19.860Z,1.40
2019-01-26T11:23:19.835Z,1.20
2019-01-26T11:24:19.794Z,1.50
2019-01-26T11:25:19.789Z,1.80
2019-01-26T11:26:19.784Z,1.60
2019-01-26T11:27:19.785Z,1.60
2019-01-26T11:28:19.804Z,1.50
2019-01-26T11:29:19.743Z,1.90
2019-01-26T11:30:19.727Z,1.90
2019-01-26T11:31:19.730Z,1.60
2019-01-26T11:32:19.729Z,1.50
2019-01-26T11:33:19.713Z,1.60
2019-01-26T11:34:19.692Z,1.30
2019-01-26T11:35:19.683Z,1.90
2019-01-26T11:36:19.664Z,1.70
2019-01-26T11:37:19.650Z,1.60
2019-01-26T11:38:19.673Z,1.90
2019-01-26T11:39:19.687Z,1.50
2019-01-26T11:40:19.628Z,1.80
2019-01-26T11:41:19.622Z,1.60
2019-01-26T11:42:19.596Z,1.60
2019-01-26T11:43:19.601Z,1.80
2019-01-26T11:44:19.595Z,1.80
2019-01-26T11:45:19.577Z,1.50
2019-01-26T11:46:19.574Z,1.50
2019-01-26T11:47:19.562Z,1.60
2019-01-26T11:48:19.571Z,1.60
2019-01-26T11:49:19.522Z,1.70
2019-01-26T11:50:19.535Z,1.50
2019-01-26T11:51:19.499Z,1.60
2019-01-26T11:52:19.529Z,1.60
2019-01-26T11:53:19.487Z,1.80
2019-01-26T11:54:19.517Z,1.50
2019-01-26T11:55:19.475Z,1.90
2019-01-26T11:56:19.452Z,1.90
2019-01-26T11:57:19.434Z,1.80
2019-01-26T11:58:19.442Z,1.90
2019-01-26T11:59:19.421Z,1.70
2019-01-26T12:00:19.430Z,2.00
2019-01-26T12:01:19.401Z,1.60
2019-01-26T12:02:19.404Z,1.90
2019-01-26T12:03:19.387Z,2.30
2019-01-26T12:04:19.378Z,5.00
2019-01-26T12:05:19.351Z,2.10
2019-01-26T12:06:19.368Z,2.50
2019-01-26T12:07:19.336Z,2.10
2019-01-26T12:08:19.340Z,2.30
2019-01-26T12:09:19.316Z,23.30
2019-01-26T12:10:19.289Z,5.60
2019-01-26T12:11:19.297Z,2.50
2019-01-26T12:12:19.288Z,4.80
2019-01-26T12:13:19.274Z,2.30
2019-01-26T12:14:19.247Z,3.90
2019-01-26T12:15:19.254Z,2.90
2019-01-26T12:16:19.340Z,2.90
2019-01-26T12:17:19.221Z,7.90
2019-01-26T12:18:19.231Z,2.20
2019-01-26T12:19:22.460Z,2.00
2019-01-26T12:20:19.200Z,7.20
2019-01-26T12:21:19.187Z,5.20
2019-01-26T12:22:19.159Z,2.90
2019-01-26T12:23:19.164Z,3.00
2019-01-26T12:24:19.178Z,2.20
2019-01-26T12:25:19.147Z,1.60
2019-01-26T12:26:19.144Z,2.20
2019-01-26T12:27:19.120Z,2.00
2019-01-26T12:28:19.120Z,2.30
2019-01-26T12:29:19.083Z,2.20
2019-01-26T12:30:19.077Z,2.00
2019-01-26T12:31:19.064Z,1.90
2019-01-26T12:32:19.066Z,2.10
2019-01-26T12:33:19.039Z,1.90
2019-01-26T12:34:19.051Z,1.90
2019-01-26T12:35:19.040Z,1.90
2019-01-26T12:36:19.040Z,1.80
2019-01-26T12:37:19.003Z,1.80
2019-01-26T12:38:19.005Z,2.00
2019-01-26T12:39:19.000Z,1.70
2019-01-26T12:40:18.981Z,1.80
2019-01-26T12:41:18.966Z,1.90
2019-01-26T12:42:18.981Z,1.70
2019-01-26T12:43:18.949Z,1.80
2019-01-26T12:44:18.940Z,1.80
2019-01-26T12:45:18.915Z,1.80
2019-01-26T12:46:18.901Z,1.40
2019-01-26T12:47:18.900Z,1.50
2019-01-26T12:48:18.918Z,1.30
2019-01-26T12:49:18.930Z,1.50
2019-01-26T12:50:18.868Z,1.50
2019-01-26T12:51:18.852Z,1.60
2019-01-26T12:52:18.839Z,1.60
2019-01-26T12:53:18.820Z,1.90
2019-01-26T12:54:18.810Z,1.80
2019-01-26T12:55:18.824Z,1.60
2019-01-26T12:56:18.813Z,1.70
2019-01-26T12:57:18.788Z,1.50
2019-01-26T12:58:18.779Z,1.40
2019-01-26T12:59:18.783Z,1.50
2019-01-26T13:00:18.768Z,1.60
2019-01-26T13:01:18.732Z,1.70
2019-01-26T13:02:18.768Z,1.60
2019-01-26T13:03:18.714Z,1.70
2019-01-26T13:04:18.712Z,1.70
2019-01-26T13:05:18.688Z,1.80
2019-01-26T13:06:18.701Z,1.50
2019-01-26T13:07:18.686Z,1.80
2019-01-26T13:08:18.659Z,1.60
2019-01-26T13:09:18.663Z,1.60
2019-01-26T13:10:18.655Z,2.00
2019-01-26T13:11:18.630Z,1.80
2019-01-26T13:12:18.673Z,1.60
2019-01-26T13:13:18.626Z,1.60
2019-01-26T13:14:18.593Z,1.50
2019-01-26T13:15:18.609Z,1.60
2019-01-26T13:16:18.595Z,1.40
2019-01-26T13:17:18.581Z,1.30
2019-01-26T13:18:18.547Z,1.60